Time;durP1;ratioP1;P1;durP2;ratioP2;P2;SDS_P1;SDS_P2;PMS_P1;PMS_P2;Temp;Humidity;BMP_temperature;BMP_pressure;BME280_temperature;BME280_humidity;BME280_pressure;Samples;Min_cycle;Max_cycle;Signal;HPM_P1;HPM_P2
2024/04/14 00:00:17;;;;;;;3.05;1.40;;;;;;;20.88;55.65;101141.97;5407309;25;94975;-74
2024/04/14 00:02:43;;;;;;;5.10;1.33;;;;;;;21.02;55.24;101134.63;5407517;25;95755;-75
2024/04/14 00:05:12;;;;;;;2.03;1.23;;;;;;;20.95;54.96;101132.47;5406122;25;96136;-75
2024/04/14 00:07:38;;;;;;;1.38;1.27;;;;;;;21.10;54.75;101131.38;5406059;25;94715;-76
2024/04/14 00:10:09;;;;;;;4.68;1.35;;;;;;;20.96;54.94;101129.69;5407990;25;96696;-76
2024/04/14 00:12:36;;;;;;;2.15;1.35;;;;;;;20.95;55.14;101121.75;5406440;25;95519;-74
2024/04/14 00:15:04;;;;;;;5.55;1.10;;;;;;;21.20;54.17;101119.00;5405672;25;96907;-74
2024/04/14 00:17:30;;;;;;;7.78;1.60;;;;;;;21.23;54.30;101121.47;5405357;25;96677;-75
2024/04/14 00:20:00;;;;;;;1.48;1.33;;;;;;;20.94;55.09;101117.34;5407040;25;94842;-76
2024/04/14 00:22:25;;;;;;;3.75;1.40;;;;;;;21.22;54.57;101118.91;5406651;25;97264;-75
2024/04/14 00:24:55;;;;;;;3.70;1.58;;;;;;;21.35;53.81;101117.88;5405258;26;99377;-80
2024/04/14 00:27:23;;;;;;;3.10;1.40;;;;;;;21.34;53.74;101101.84;5407540;25;95184;-76
2024/04/14 00:29:52;;;;;;;3.85;1.48;;;;;;;21.48;53.51;101096.31;5407491;25;94976;-77
2024/04/14 00:32:18;;;;;;;2.03;1.35;;;;;;;21.48;53.21;101094.47;5407427;25;100389;-80
2024/04/14 00:34:52;;;;;;;2.08;1.35;;;;;;;21.34;53.45;101083.91;5406057;25;94830;-76
2024/04/14 00:37:18;;;;;;;5.07;1.40;;;;;;;21.10;54.18;101088.38;5406973;25;94765;-76
2024/04/14 00:39:46;;;;;;;2.10;1.20;;;;;;;21.45;53.38;101081.28;5407057;25;94795;-77
2024/04/14 00:42:12;;;;;;;3.08;1.70;;;;;;;21.39;53.55;101078.19;5406611;25;95254;-80
2024/04/14 00:44:43;;;;;;;2.33;1.40;;;;;;;21.32;53.46;101072.44;5406410;25;96506;-76
2024/04/14 00:47:13;;;;;;;3.72;1.45;;;;;;;21.21;53.87;101071.50;5407523;25;94881;-79
2024/04/14 00:49:43;;;;;;;2.13;1.17;;;;;;;21.22;53.82;101070.53;5407866;25;94911;-76
2024/04/14 00:52:11;;;;;;;3.05;1.50;;;;;;;21.24;54.11;101069.44;5408008;25;99668;-76
2024/04/14 00:54:40;;;;;;;6.07;1.92;;;;;;;21.11;54.35;101067.75;5404723;25;98211;-76
2024/04/14 00:57:13;;;;;;;1.60;1.45;;;;;;;21.13;54.23;101061.31;5405973;25;94822;-76
2024/04/14 00:59:45;;;;;;;2.13;1.42;;;;;;;20.96;55.02;101059.84;5406415;25;95792;-76
2024/04/14 01:02:12;;;;;;;2.55;1.77;;;;;;;21.05;55.00;101059.19;5406101;25;97902;-76
2024/04/14 01:04:41;;;;;;;5.50;2.20;;;;;;;20.93;54.97;101060.09;5404673;25;95841;-77
2024/04/14 01:07:13;;;;;;;2.25;2.05;;;;;;;20.71;56.00;101062.63;5405166;25;94795;-76
2024/04/14 01:09:41;;;;;;;3.38;1.65;;;;;;;20.78;55.77;101061.22;5407414;25;95006;-76
2024/04/14 01:12:08;;;;;;;10.18;2.30;;;;;;;20.85;56.10;101051.72;5409719;25;97243;-76
2024/04/14 01:14:40;;;;;;;5.20;2.38;;;;;;;20.73;56.10;101054.47;5408001;25;97970;-76
2024/04/14 01:17:11;;;;;;;2.25;1.60;;;;;;;20.73;56.16;101044.59;5408336;25;95047;-76
2024/04/14 01:19:40;;;;;;;2.78;1.70;;;;;;;20.69;56.35;101041.25;5409423;25;95120;-76
2024/04/14 01:22:06;;;;;;;4.82;1.90;;;;;;;20.81;55.95;101047.53;5408519;25;95655;-78
2024/04/14 01:24:37;;;;;;;2.80;1.50;;;;;;;20.67;56.55;101034.28;5408496;25;97097;-76
2024/04/14 01:27:06;;;;;;;3.30;1.48;;;;;;;20.72;56.82;101034.81;5408672;25;96350;-76
2024/04/14 01:29:38;;;;;;;1.85;1.67;;;;;;;20.72;57.13;101034.81;5408970;25;94923;-76
2024/04/14 01:32:05;;;;;;;2.92;1.63;;;;;;;20.90;56.04;101028.06;5407740;25;95542;-76
2024/04/14 01:34:38;;;;;;;2.15;1.63;;;;;;;20.71;56.76;101025.03;5407380;25;98524;-75
2024/04/14 01:37:06;;;;;;;4.30;1.73;;;;;;;20.65;56.63;101022.78;5405342;25;95072;-77
2024/04/14 01:39:38;;;;;;;2.35;1.77;;;;;;;20.70;56.86;101028.69;5409292;25;94783;-77
2024/04/14 01:42:08;;;;;;;2.90;1.70;;;;;;;20.93;56.23;101019.81;5407883;25;95573;-77
2024/04/14 01:44:40;;;;;;;3.08;1.60;;;;;;;21.01;56.14;101025.44;5401694;25;100061;-77
2024/04/14 01:47:06;;;;;;;4.90;1.60;;;;;;;20.62;57.33;101018.50;5398883;25;94757;-77
2024/04/14 01:49:35;;;;;;;3.30;1.48;;;;;;;20.65;57.34;101018.28;5409716;25;94864;-77
2024/04/14 01:52:01;;;;;;;3.08;1.60;;;;;;;20.77;57.11;101011.16;5400795;25;95783;-78
2024/04/14 01:54:29;;;;;;;3.00;1.83;;;;;;;20.86;56.72;101015.00;5408061;25;99436;-76
2024/04/14 01:56:55;;;;;;;3.15;1.55;;;;;;;20.75;57.45;101012.22;5406272;25;94680;-80
2024/04/14 01:59:27;;;;;;;2.75;1.45;;;;;;;20.71;57.80;101014.28;5409092;25;94874;-76
2024/04/14 02:01:56;;;;;;;7.43;1.60;;;;;;;20.66;57.98;101017.31;5408560;25;95721;-76
2024/04/14 02:04:25;;;;;;;3.50;1.30;;;;;;;20.38;58.60;101011.38;5401150;25;96187;-76
2024/04/14 02:06:51;;;;;;;3.03;1.50;;;;;;;20.43;59.43;101010.06;5407877;25;96014;-76
2024/04/14 02:09:19;;;;;;;2.03;1.60;;;;;;;20.42;58.96;101013.72;5404332;25;95218;-77
2024/04/14 02:11:48;;;;;;;5.05;1.88;;;;;;;20.45;59.60;101012.66;5408102;26;96252;-77
2024/04/14 02:14:21;;;;;;;3.15;1.60;;;;;;;20.30;60.54;101018.09;5413322;25;97718;-76
2024/04/14 02:16:50;;;;;;;5.80;1.42;;;;;;;20.20;61.00;101010.84;5404554;25;94819;-76
2024/04/14 02:19:22;;;;;;;10.27;2.47;;;;;;;20.21;60.73;101009.88;5409352;25;94875;-75
2024/04/14 02:21:48;;;;;;;3.10;1.58;;;;;;;20.18;61.34;101019.00;5406805;25;95579;-75
2024/04/14 02:24:17;;;;;;;4.07;1.75;;;;;;;20.34;61.01;101017.94;5409743;25;96013;-75
2024/04/14 02:26:45;;;;;;;4.38;1.70;;;;;;;20.33;60.90;101017.06;5407799;25;94708;-76
2024/04/14 02:29:13;;;;;;;3.67;1.50;;;;;;;20.27;61.20;101023.72;5409577;26;94991;-76
2024/04/14 02:31:39;;;;;;;2.25;1.50;;;;;;;20.50;60.55;101026.59;5408340;25;95548;-76
2024/04/14 02:34:09;;;;;;;3.65;1.70;;;;;;;20.58;60.63;101032.25;5408693;25;98869;-75
2024/04/14 02:36:35;;;;;;;2.35;2.00;;;;;;;20.58;60.52;101032.25;5407606;25;95569;-75
2024/04/14 02:39:04;;;;;;;5.32;1.73;;;;;;;20.36;61.38;101037.44;5409465;25;95388;-74
2024/04/14 02:41:30;;;;;;;3.95;1.77;;;;;;;20.19;62.15;101028.75;5401978;25;97079;-75
2024/04/14 02:43:58;;;;;;;5.68;1.88;;;;;;;20.20;62.69;101033.16;5408864;25;95782;-76
2024/04/14 02:46:24;;;;;;;5.30;2.00;;;;;;;20.30;62.17;101036.91;5407338;25;95595;-74
2024/04/14 02:48:53;;;;;;;4.00;1.83;;;;;;;20.51;61.38;101036.34;5408749;25;94914;-74
2024/04/14 02:51:21;;;;;;;3.75;1.90;;;;;;;20.43;61.73;101036.91;5409233;25;97207;-74
2024/04/14 02:53:49;;;;;;;3.88;2.25;;;;;;;20.52;62.22;101040.75;5408663;25;97275;-75
2024/04/14 02:56:15;;;;;;;5.38;1.83;;;;;;;20.77;61.08;101032.63;5406950;25;94884;-74
2024/04/14 02:58:43;;;;;;;2.17;1.73;;;;;;;20.77;nan;101032.63;5408613;26;95137;-75
2024/04/14 03:01:10;;;;;;;4.47;2.03;;;;;;;20.76;61.67;101038.09;5409157;25;96320;-75
2024/04/14 03:03:38;;;;;;;4.47;1.83;;;;;;;20.56;62.44;101028.81;5407861;25;96151;-75
2024/04/14 03:06:05;;;;;;;6.55;2.22;;;;;;;20.69;61.65;101025.13;5406007;25;94707;-76
2024/04/14 03:08:36;;;;;;;6.40;2.40;;;;;;;20.80;61.74;101037.78;5409220;25;95068;-75
2024/04/14 03:11:02;;;;;;;2.72;2.00;;;;;;;20.67;62.66;101031.59;5407770;25;96126;-74
2024/04/14 03:13:31;;;;;;;5.70;2.47;;;;;;;20.65;63.07;101038.91;5409319;25;97365;-76
2024/04/14 03:15:56;;;;;;;4.53;2.33;;;;;;;20.65;63.28;101033.53;5407682;25;94938;-76
2024/04/14 03:18:24;;;;;;;5.95;2.40;;;;;;;20.54;63.64;101033.47;5408573;25;94787;-75
2024/04/14 03:20:56;;;;;;;7.28;2.80;;;;;;;20.56;63.64;101040.41;5406941;25;95822;-76
2024/04/14 03:23:24;;;;;;;3.30;2.20;;;;;;;20.35;64.74;101035.75;5409417;25;96953;-76
2024/04/14 03:25:54;;;;;;;4.68;2.17;;;;;;;20.37;65.57;101052.59;5407173;25;95496;-75
2024/04/14 03:28:23;;;;;;;6.78;2.72;;;;;;;20.53;64.99;101042.47;5408930;25;95533;-75
2024/04/14 03:30:49;;;;;;;6.78;2.75;;;;;;;20.61;64.01;101042.78;5407253;25;97007;-75
2024/04/14 03:33:18;;;;;;;6.88;2.67;;;;;;;20.27;65.48;101047.88;5406379;25;96629;-76
2024/04/14 03:35:44;;;;;;;4.63;2.42;;;;;;;20.52;64.86;101048.81;5405425;25;95904;-75
2024/04/14 03:38:12;;;;;;;3.95;2.55;;;;;;;20.38;65.33;101039.06;5407679;25;94760;-75
2024/04/14 03:40:40;;;;;;;3.35;2.50;;;;;;;20.23;66.16;101057.06;5407279;25;99450;-75
2024/04/14 03:43:11;;;;;;;4.07;2.70;;;;;;;20.37;65.53;101058.81;5407652;25;96993;-74
2024/04/14 03:45:44;;;;;;;5.60;2.42;;;;;;;20.41;65.67;101062.16;5407221;25;94777;-75
2024/04/14 03:48:09;;;;;;;5.72;2.58;;;;;;;20.51;65.10;101053.31;5404731;26;95262;-76
2024/04/14 03:50:37;;;;;;;9.60;2.88;;;;;;;20.15;66.26;101059.44;5410985;25;95996;-76
2024/04/14 03:53:03;;;;;;;5.55;2.70;;;;;;;20.00;66.85;101063.22;5409653;25;96874;-75
2024/04/14 03:55:33;;;;;;;6.18;2.50;;;;;;;20.20;66.16;101062.69;5407370;25;94906;-76
2024/04/14 03:57:58;;;;;;;5.78;3.00;;;;;;;20.08;66.60;101065.38;5407685;25;94884;-75
2024/04/14 04:00:29;;;;;;;4.15;2.92;;;;;;;20.36;65.53;101061.59;5407605;25;96158;-74
2024/04/14 04:02:54;;;;;;;4.28;2.88;;;;;;;20.24;65.26;101068.66;5407550;25;100046;-75
2024/04/14 04:05:22;;;;;;;6.70;3.30;;;;;;;20.05;66.32;101073.63;5407224;25;98209;-74
2024/04/14 04:07:48;;;;;;;9.43;3.30;;;;;;;20.10;65.38;101083.06;5410302;25;95020;-75
2024/04/14 04:10:17;;;;;;;5.93;3.42;;;;;;;20.38;64.34;101078.47;5408105;25;97051;-75
2024/04/14 04:12:42;;;;;;;9.63;3.20;;;;;;;20.44;63.80;101075.34;5407462;25;95865;-75
2024/04/14 04:15:10;;;;;;;3.50;3.17;;;;;;;20.21;64.54;101090.38;5407022;25;94647;-75
2024/04/14 04:17:48;;;;;;;5.53;3.10;;;;;;;20.11;64.85;101082.09;5405499;25;95637;-76
2024/04/14 04:20:32;;;;;;;9.70;3.60;;;;;;;20.09;65.04;101072.41;5443520;25;97184;-77
2024/04/14 04:23:08;;;;;;;5.18;3.33;;;;;;;20.02;65.83;101087.25;5442817;25;98103;-76
2024/04/14 04:25:42;;;;;;;8.98;3.22;;;;;;;20.07;65.17;101096.69;5439234;25;95209;-76
2024/04/14 04:28:10;;;;;;;7.50;3.28;;;;;;;20.07;65.30;101091.34;5441164;25;95119;-77
2024/04/14 04:30:39;;;;;;;5.38;3.20;;;;;;;20.40;64.16;101103.38;5443247;25;95896;-76
2024/04/14 04:33:10;;;;;;;6.72;3.72;;;;;;;20.33;63.76;101102.94;5443000;25;97408;-78
2024/04/14 04:35:39;;;;;;;10.60;3.88;;;;;;;20.52;62.92;101106.06;5431501;25;95814;-76
2024/04/14 04:38:06;;;;;;;10.10;3.60;;;;;;;20.28;64.51;101122.00;5443319;25;94891;-76
2024/04/14 04:40:38;;;;;;;8.73;3.60;;;;;;;20.43;63.62;101122.78;5445285;25;95907;-78
2024/04/14 04:43:04;;;;;;;9.93;3.70;;;;;;;20.49;63.46;101129.56;5443073;25;99103;-77
2024/04/14 04:45:32;;;;;;;4.38;3.30;;;;;;;20.71;62.75;101137.81;5443843;25;94704;-77
2024/04/14 04:47:58;;;;;;;6.47;3.53;;;;;;;20.72;62.25;101131.47;5444581;25;95721;-74
2024/04/14 04:50:28;;;;;;;7.72;3.35;;;;;;;20.78;62.40;101140.91;5444914;25;96798;-74
2024/04/14 04:52:54;;;;;;;8.70;3.78;;;;;;;20.97;61.93;101149.38;5439975;25;97493;-74
2024/04/14 04:55:22;;;;;;;4.72;3.28;;;;;;;20.99;61.31;101161.72;5442127;25;94778;-76
2024/04/14 04:57:48;;;;;;;7.63;2.95;;;;;;;20.90;60.77;101161.50;5437759;25;94948;-76
2024/04/14 05:00:17;;;;;;;5.53;2.97;;;;;;;20.63;60.39;101169.72;5445169;25;99411;-76
2024/04/14 05:02:43;;;;;;;7.30;2.90;;;;;;;20.28;61.14;101169.47;5444558;25;97135;-75
2024/04/14 05:05:11;;;;;;;5.13;2.47;;;;;;;20.40;59.37;101171.34;5444326;25;94727;-76
2024/04/14 05:07:39;;;;;;;7.00;2.20;;;;;;;20.70;57.95;101181.72;5434324;25;95027;-75
2024/04/14 05:10:08;;;;;;;5.50;2.25;;;;;;;20.08;58.53;101180.72;5444013;25;97047;-74
2024/04/14 05:12:34;;;;;;;3.30;1.92;;;;;;;20.42;58.19;101180.13;5438142;25;97053;-75
2024/04/14 05:15:04;;;;;;;7.68;2.78;;;;;;;20.67;57.18;101188.19;5442393;25;94712;-77
2024/04/14 05:17:30;;;;;;;5.95;2.33;;;;;;;20.54;56.64;101183.81;5435981;25;95038;-76
2024/04/14 05:19:58;;;;;;;8.80;2.47;;;;;;;20.40;57.08;101187.44;5440247;25;96873;-75
2024/04/14 05:22:23;;;;;;;6.70;2.17;;;;;;;20.63;56.38;101191.19;5433421;25;96988;-75
2024/04/14 05:24:54;;;;;;;6.45;2.00;;;;;;;20.75;56.09;101192.13;5439456;25;94813;-76
2024/04/14 05:27:20;;;;;;;4.78;2.00;;;;;;;20.70;55.70;101205.91;5436395;25;95202;-75
2024/04/14 05:29:48;;;;;;;6.65;1.90;;;;;;;20.60;56.19;101199.47;5442062;25;96598;-75
2024/04/14 05:32:15;;;;;;;5.72;1.40;;;;;;;19.85;58.06;101201.88;5444973;25;99476;-75
2024/04/14 05:34:44;;;;;;;7.75;1.95;;;;;;;19.86;58.46;101208.97;5445369;25;94801;-75
2024/04/14 05:37:13;;;;;;;5.07;2.20;;;;;;;20.06;57.83;101204.97;5442284;25;94807;-76
2024/04/14 05:39:44;;;;;;;6.85;1.90;;;;;;;19.94;57.94;101203.09;5445220;25;95262;-75
2024/04/14 05:42:12;;;;;;;14.55;2.45;;;;;;;19.93;56.76;101212.13;5444395;25;95908;-76
2024/04/14 05:44:49;;;;;;;5.03;1.88;;;;;;;19.41;59.26;101223.56;5444884;25;94760;-76
2024/04/14 05:47:14;;;;;;;9.63;2.47;;;;;;;19.61;58.77;101222.28;5444484;25;95965;-75
2024/04/14 05:49:42;;;;;;;;;;;;;;;19.61;58.53;101216.94;5439660;25;99445;-75
2024/04/14 05:52:08;;;;;;;7.65;2.47;;;;;;;19.85;57.25;101214.44;5444577;25;96684;-75
2024/04/14 05:54:36;;;;;;;2.45;1.75;;;;;;;20.30;56.24;101214.00;5443018;25;94799;-76
2024/04/14 05:57:02;;;;;;;5.85;1.75;;;;;;;19.76;57.56;101231.13;5444162;25;94923;-76
2024/04/14 05:59:32;;;;;;;;;;;;;;;19.81;57.71;101223.66;5446910;25;95717;-76
2024/04/14 06:01:58;;;;;;;3.60;1.40;;;;;;;19.69;57.93;101232.53;5445058;25;96967;-76
2024/04/14 06:04:26;;;;;;;2.55;1.35;;;;;;;19.37;59.34;101226.50;5443983;25;94735;-76
2024/04/14 06:06:51;;;;;;;9.48;2.00;;;;;;;19.46;59.56;101229.50;5446514;25;94830;-76
2024/04/14 06:09:21;;;;;;;;;;;;;;;19.54;58.75;101241.56;5433769;25;96913;-76
2024/04/14 06:11:47;;;;;;;8.98;2.30;;;;;;;19.23;60.89;101231.91;5419590;25;97534;-74
2024/04/14 06:14:14;;;;;;;;;;;;;;;19.58;60.18;101245.75;5423109;25;94767;-76
2024/04/14 06:16:42;;;;;;;4.18;1.80;;;;;;;19.89;58.10;101251.66;5426401;25;95302;-76
2024/04/14 06:19:11;;;;;;;5.10;1.88;;;;;;;19.30;60.27;101244.81;5430458;25;98679;-75
2024/04/14 06:21:38;;;;;;;11.80;2.40;;;;;;;19.89;59.20;101240.06;5421544;25;97472;-75
2024/04/14 06:24:06;;;;;;;8.05;2.08;;;;;;;19.41;59.94;101252.16;5414104;25;94813;-76
2024/04/14 06:26:32;;;;;;;8.00;2.08;;;;;;;19.61;59.21;101246.41;5431591;25;95042;-77
2024/04/14 06:29:03;;;;;;;;;;;;;;;20.05;57.46;101258.69;5437506;25;97059;-77
2024/04/14 06:31:28;;;;;;;5.30;2.20;;;;;;;20.21;57.17;101259.41;5424312;25;100599;-75
2024/04/14 06:33:59;;;;;;;8.80;1.98;;;;;;;20.47;56.03;101279.16;5431755;25;94817;-73
2024/04/14 06:36:24;;;;;;;6.70;2.17;;;;;;;20.88;54.86;101266.38;5422906;25;95056;-72
2024/04/14 06:38:54;;;;;;;;;;;;;;;21.06;53.85;101258.88;5431986;25;96925;-73
2024/04/14 06:41:19;;;;;;;5.50;1.75;;;;;;;21.28;53.52;101260.88;5448243;25;99638;-73
2024/04/14 06:43:47;;;;;;;9.38;2.10;;;;;;;21.27;53.28;101265.41;5444451;25;94944;-75
2024/04/14 06:46:13;;;;;;;7.00;2.00;;;;;;;20.93;54.53;101271.44;5442453;25;94975;-75
2024/04/14 06:48:41;;;;;;;8.70;2.78;;;;;;;20.45;56.11;101268.50;5444228;25;96494;-76
2024/04/14 06:51:09;;;;;;;8.70;2.47;;;;;;;20.78;55.27;101273.38;5443122;25;96112;-75
2024/04/14 06:53:37;;;;;;;4.95;2.00;;;;;;;21.01;53.93;101274.44;5443536;25;94854;-76
2024/04/14 06:56:05;;;;;;;7.25;2.10;;;;;;;20.45;55.62;101281.94;5441269;25;95347;-76
2024/04/14 06:58:35;;;;;;;9.20;2.30;;;;;;;20.09;57.38;101281.66;5445282;25;97249;-76
2024/04/14 07:01:01;;;;;;;7.05;2.00;;;;;;;19.36;59.31;101281.09;5442063;25;97467;-75
2024/04/14 07:03:29;;;;;;;6.20;2.13;;;;;;;19.00;61.43;101279.75;5444538;25;95102;-76
2024/04/14 07:05:54;;;;;;;11.25;2.92;;;;;;;19.01;61.82;101296.69;5441615;25;94902;-76
2024/04/14 07:08:25;;;;;;;8.15;2.35;;;;;;;19.10;61.60;101301.44;5442026;25;96476;-76
2024/04/14 07:10:51;;;;;;;7.82;2.38;;;;;;;19.53;59.76;101306.84;5444385;25;95813;-76
2024/04/14 07:13:19;;;;;;;6.20;1.70;;;;;;;19.75;58.36;101308.06;5443776;25;94843;-75
2024/04/14 07:15:44;;;;;;;7.53;2.22;;;;;;;20.14;56.98;101312.63;5442310;25;94846;-75
2024/04/14 07:18:12;;;;;;;5.35;1.88;;;;;;;20.27;56.67;101310.84;5442463;25;98469;-76
2024/04/14 07:20:38;;;;;;;6.80;2.40;;;;;;;20.34;55.93;101314.00;5442867;25;97291;-76
2024/04/14 07:23:06;;;;;;;6.53;2.10;;;;;;;20.11;55.51;101299.41;5444079;25;94768;-76
2024/04/14 07:25:34;;;;;;;9.88;1.90;;;;;;;20.35;54.93;101314.88;5441617;25;94960;-76
2024/04/14 07:28:03;;;;;;;4.85;1.77;;;;;;;20.45;53.47;101313.28;5442099;25;95752;-76
2024/04/14 07:30:28;;;;;;;5.22;1.52;;;;;;;19.94;53.66;101321.13;5442014;25;100267;-75
2024/04/14 07:32:56;;;;;;;7.43;1.55;;;;;;;19.78;53.86;101320.38;5446769;25;96035;-76
2024/04/14 07:35:22;;;;;;;9.48;1.70;;;;;;;19.95;53.14;101330.03;5418901;25;95020;-76
2024/04/14 07:37:50;;;;;;;8.93;1.55;;;;;;;20.01;53.31;101322.44;5419988;25;97266;-75
2024/04/14 07:40:15;;;;;;;7.93;1.75;;;;;;;18.89;57.00;101325.09;5412867;25;97293;-75
2024/04/14 07:42:46;;;;;;;6.28;1.73;;;;;;;19.54;55.03;101324.66;5429461;25;94860;-76
2024/04/14 07:45:12;;;;;;;7.93;1.75;;;;;;;19.81;53.26;101336.28;5428327;25;94751;-75
2024/04/14 07:47:39;;;;;;;;;;;;;;;20.38;52.06;101328.94;5418458;25;96876;-75
2024/04/14 07:50:05;;;;;;;6.88;1.23;;;;;;;19.42;53.22;101328.94;5441860;25;97365;-75
2024/04/14 07:52:34;;;;;;;6.63;1.20;;;;;;;19.38;53.23;101328.25;5424128;25;94871;-77
2024/04/14 07:54:59;;;;;;;6.40;1.35;;;;;;;19.61;52.83;101329.53;5441665;25;95343;-75
2024/04/14 07:57:29;;;;;;;8.23;1.45;;;;;;;19.06;53.76;101329.41;5431115;25;96830;-75
2024/04/14 07:59:58;;;;;;;6.88;1.60;;;;;;;18.79;54.82;101334.63;5436142;25;98163;-76
2024/04/14 08:02:26;;;;;;;6.47;1.40;;;;;;;19.37;52.81;101341.75;5419298;25;94742;-76
2024/04/14 08:04:52;;;;;;;4.03;1.55;;;;;;;19.10;53.86;101341.63;5424883;25;95134;-75
2024/04/14 08:07:19;;;;;;;;;;;;;;;19.30;53.34;101353.78;5428234;25;96960;-76
2024/04/14 08:09:45;;;;;;;6.88;1.58;;;;;;;19.80;52.65;101351.50;5424269;25;96857;-75
2024/04/14 08:12:13;;;;;;;5.57;1.75;;;;;;;20.57;50.95;101350.88;5433149;25;94849;-76
2024/04/14 08:14:39;;;;;;;9.02;1.77;;;;;;;20.52;50.39;101360.22;5435589;25;95794;-73
2024/04/14 08:17:09;;;;;;;6.43;1.63;;;;;;;20.25;51.45;101369.13;5428941;25;97386;-74
2024/04/14 08:19:35;;;;;;;4.25;1.60;;;;;;;20.60;50.23;101368.63;5434449;25;96221;-73
2024/04/14 08:22:03;;;;;;;9.82;1.83;;;;;;;20.91;49.31;101368.25;5429004;25;97015;-73
2024/04/14 08:24:31;;;;;;;4.80;1.40;;;;;;;20.66;49.56;101371.75;5472849;25;94983;-76
2024/04/14 08:26:59;;;;;;;3.38;1.23;;;;;;;20.98;49.24;101374.94;5468626;25;96857;-74
2024/04/14 08:29:25;;;;;;;4.57;1.40;;;;;;;21.23;47.80;101363.34;5475409;25;100059;-74
2024/04/14 08:31:56;;;;;;;4.88;1.20;;;;;;;21.16;48.16;101380.88;5479764;25;95090;-76
2024/04/14 08:34:23;;;;;;;5.53;1.50;;;;;;;21.58;47.03;101382.38;5477589;25;97474;-76
2024/04/14 08:36:51;;;;;;;5.32;1.30;;;;;;;22.04;44.93;101388.00;5473097;25;96886;-76
2024/04/14 08:39:17;;;;;;;8.32;2.22;;;;;;;22.14;43.80;101380.09;5463256;25;96717;-78
2024/04/14 08:41:47;;;;;;;5.10;1.33;;;;;;;21.95;43.44;101368.94;5468975;25;94886;-76
2024/04/14 08:44:13;;;;;;;4.38;1.10;;;;;;;21.99;42.38;101384.78;5470158;25;95108;-74
2024/04/14 08:46:43;;;;;;;5.00;1.08;;;;;;;22.10;37.21;101386.69;5478315;25;96888;-75
2024/04/14 08:49:10;;;;;;;6.88;0.70;;;;;;;21.64;34.30;101395.38;5476748;25;95702;-75
2024/04/14 08:51:41;;;;;;;7.60;1.10;;;;;;;21.36;35.39;101392.91;5478145;25;94808;-76
2024/04/14 08:54:10;;;;;;;3.63;0.60;;;;;;;21.23;35.21;101405.50;5477960;25;94743;-80
2024/04/14 08:56:38;;;;;;;6.90;0.90;;;;;;;21.24;35.38;101416.16;5471724;25;95848;-76
2024/04/14 08:59:08;;;;;;;2.95;0.50;;;;;;;21.07;35.42;101417.25;5478450;25;99145;-76
2024/04/14 09:01:37;;;;;;;3.22;0.60;;;;;;;20.96;34.75;101430.56;5471688;25;94828;-75
2024/04/14 09:04:03;;;;;;;4.75;1.10;;;;;;;21.32;34.40;101411.09;5475909;25;95050;-75
2024/04/14 09:06:32;;;;;;;4.05;0.90;;;;;;;21.66;33.30;101417.63;5478633;25;95893;-76
2024/04/14 09:09:01;;;;;;;3.03;0.75;;;;;;;22.20;32.90;101412.81;5479759;25;96875;-76
2024/04/14 09:11:29;;;;;;;6.90;1.33;;;;;;;22.44;32.76;101404.78;5471889;25;95599;-75
2024/04/14 09:13:55;;;;;;;2.28;0.70;;;;;;;22.35;32.64;101421.59;5479090;25;95712;-76
2024/04/14 09:16:25;;;;;;;2.55;0.80;;;;;;;22.87;31.77;101417.72;5470008;25;98378;-75
2024/04/14 09:18:52;;;;;;;1.75;0.65;;;;;;;22.58;31.74;101418.03;5473963;25;96526;-75
2024/04/14 09:21:20;;;;;;;6.57;1.02;;;;;;;21.41;33.25;101421.19;5476678;25;94729;-76
2024/04/14 09:23:47;;;;;;;3.78;1.48;;;;;;;21.77;33.37;101433.88;5472014;25;94740;-76
2024/04/14 09:26:18;;;;;;;3.40;1.38;;;;;;;22.19;32.63;101431.75;5471805;25;96826;-76
2024/04/14 09:28:44;;;;;;;6.80;1.20;;;;;;;22.56;31.22;101436.16;5473050;25;98472;-77
2024/04/14 09:31:13;;;;;;;8.95;1.15;;;;;;;22.67;31.56;101454.22;5475140;25;94667;-75
2024/04/14 09:33:39;;;;;;;3.13;0.82;;;;;;;22.00;32.83;101434.06;5471488;25;95138;-75
2024/04/14 09:36:09;;;;;;;2.35;0.90;;;;;;;21.23;33.85;101448.50;5476589;25;96796;-75
2024/04/14 09:38:35;;;;;;;4.53;0.95;;;;;;;21.30;34.46;101452.50;5482121;25;96693;-75
2024/04/14 09:41:05;;;;;;;4.35;0.63;;;;;;;21.23;34.70;101453.88;5478481;25;94780;-74
2024/04/14 09:43:34;;;;;;;4.43;0.80;;;;;;;21.67;34.86;101442.69;5473475;25;94890;-76
2024/04/14 09:46:04;;;;;;;3.67;0.80;;;;;;;21.84;34.90;101445.94;5477331;25;95501;-75
2024/04/14 09:48:31;;;;;;;7.82;0.90;;;;;;;21.33;35.39;101445.06;5473613;25;96805;-76
2024/04/14 09:51:00;;;;;;;3.25;0.98;;;;;;;21.45;35.43;101441.53;5482003;25;94792;-75
2024/04/14 09:53:31;;;;;;;6.80;1.48;;;;;;;21.91;35.03;101450.88;5478632;25;94842;-76
2024/04/14 09:56:00;;;;;;;6.78;1.00;;;;;;;21.72;35.44;101437.88;5459326;25;97369;-76
2024/04/14 09:58:26;;;;;;;6.75;1.30;;;;;;;22.32;34.91;101450.59;5469955;25;96885;-75
2024/04/14 10:00:59;;;;;;;7.25;1.48;;;;;;;22.66;34.18;101445.25;5472426;25;94972;-75
2024/04/14 10:03:28;;;;;;;6.55;1.45;;;;;;;22.74;33.83;101441.16;5478029;25;94833;-76
2024/04/14 10:05:58;;;;;;;5.28;1.20;;;;;;;22.98;33.58;101447.38;5473233;25;97395;-76
2024/04/14 10:08:24;;;;;;;5.60;1.08;;;;;;;23.19;32.86;101447.56;5479021;25;96971;-75
2024/04/14 10:10:55;;;;;;;3.70;0.95;;;;;;;23.14;33.14;101453.34;5480509;25;95232;-75
2024/04/14 10:13:20;;;;;;;5.60;1.02;;;;;;;23.17;32.83;101445.00;5470466;25;94912;-75
2024/04/14 10:16:00;;;;;;;4.28;0.95;;;;;;;23.05;32.95;101446.81;5480727;25;100179;-75
2024/04/14 10:18:27;;;;;;;6.85;1.00;;;;;;;22.82;32.97;101455.78;5471736;25;96866;-75
2024/04/14 10:20:57;;;;;;;4.38;1.02;;;;;;;22.59;31.76;101459.31;5462374;25;94739;-76
2024/04/14 10:23:25;;;;;;;3.22;1.30;;;;;;;22.34;32.39;101457.56;5478693;25;94857;-76
2024/04/14 10:25:53;;;;;;;5.82;1.33;;;;;;;21.65;33.78;101460.78;5472114;25;96959;-75
2024/04/14 10:28:19;;;;;;;5.05;1.48;;;;;;;21.34;34.60;101443.22;5481097;25;97265;-75
2024/04/14 10:30:48;;;;;;;3.33;1.00;;;;;;;21.09;34.81;101458.34;5474765;25;95223;-75
2024/04/14 10:33:23;;;;;;;3.67;0.95;;;;;;;20.67;34.55;101446.00;5480938;25;95343;-77
2024/04/14 10:36:01;;;;;;;6.70;1.58;;;;;;;21.09;33.31;101458.34;5473201;25;96201;-76
2024/04/14 10:38:28;;;;;;;6.75;1.55;;;;;;;21.15;32.17;101467.78;5481327;25;96733;-75
2024/04/14 10:40:57;;;;;;;5.63;0.60;;;;;;;20.74;32.42;101477.81;5481362;25;94726;-76
2024/04/14 10:43:24;;;;;;;1.83;0.65;;;;;;;20.75;32.38;101477.69;5469171;25;95145;-76
2024/04/14 10:45:52;;;;;;;6.28;1.33;;;;;;;21.06;32.03;101484.56;5474974;25;97165;-75
2024/04/14 10:48:18;;;;;;;4.20;1.30;;;;;;;20.83;31.81;101488.78;5479463;25;100012;-75
2024/04/14 10:50:49;;;;;;;2.92;1.00;;;;;;;20.64;32.85;101483.78;5474120;25;94815;-75
2024/04/14 10:53:14;;;;;;;7.00;1.13;;;;;;;20.38;33.26;101489.13;5481457;25;95114;-76
2024/04/14 10:55:42;;;;;;;4.55;1.88;;;;;;;20.25;34.30;101489.00;5478670;25;96922;-75
2024/04/14 10:58:07;;;;;;;3.08;0.85;;;;;;;19.94;33.32;101482.06;5478243;25;95945;-75
2024/04/14 11:00:36;;;;;;;6.15;1.15;;;;;;;20.22;33.13;101492.75;5471912;25;97329;-76
2024/04/14 11:03:01;;;;;;;8.77;1.27;;;;;;;19.43;31.93;101478.91;5479480;25;95228;-75
2024/04/14 11:05:31;;;;;;;7.47;1.05;;;;;;;19.77;32.39;101484.91;5468037;25;98379;-77
2024/04/14 11:08:00;;;;;;;4.53;1.05;;;;;;;19.15;33.42;101481.53;5467839;25;97747;-76
2024/04/14 11:10:28;;;;;;;7.72;1.20;;;;;;;18.91;33.41;101477.59;5473362;25;94715;-76
2024/04/14 11:12:54;;;;;;;6.22;1.40;;;;;;;19.90;31.90;101484.03;5480697;25;97544;-75
2024/04/14 11:15:22;;;;;;;4.75;1.33;;;;;;;20.55;30.70;101478.13;5479618;25;95608;-76
2024/04/14 11:17:48;;;;;;;7.07;1.02;;;;;;;21.34;29.17;101486.25;5473222;25;96970;-77
2024/04/14 11:20:17;;;;;;;3.47;0.75;;;;;;;21.29;29.44;101485.69;5475593;25;95298;-75
2024/04/14 11:22:43;;;;;;;5.47;1.02;;;;;;;20.52;30.60;101481.91;5462030;25;94742;-77
2024/04/14 11:25:14;;;;;;;4.72;1.17;;;;;;;20.93;30.69;101484.53;5468216;25;97938;-77
2024/04/14 11:27:40;;;;;;;8.70;1.52;;;;;;;21.38;29.66;101485.09;5473185;25;95606;-76
2024/04/14 11:30:10;;;;;;;6.32;1.23;;;;;;;21.13;29.40;101482.31;5481680;25;95076;-77